sensor_id;sensor_type;location;lat;lon;timestamp;P1;durP1;ratioP1;P2;durP2;ratioP2
52962;SDS011;38827;53.024;6.596;2022-11-11T00:02:31;13.32;;;6.43;;
52962;SDS011;38827;53.024;6.596;2022-11-11T00:04:57;11.98;;;6.75;;
52962;SDS011;38827;53.024;6.596;2022-11-11T00:07:29;13.60;;;7.68;;
52962;SDS011;38827;53.024;6.596;2022-11-11T00:10:01;12.10;;;6.78;;
52962;SDS011;38827;53.024;6.596;2022-11-11T00:12:29;17.73;;;7.35;;
52962;SDS011;38827;53.024;6.596;2022-11-11T00:14:55;14.35;;;7.20;;
52962;SDS011;38827;53.024;6.596;2022-11-11T00:17:23;14.00;;;6.65;;
52962;SDS011;38827;53.024;6.596;2022-11-11T00:20:20;15.27;;;6.82;;
52962;SDS011;38827;53.024;6.596;2022-11-11T00:26:20;17.38;;;7.18;;
52962;SDS011;38827;53.024;6.596;2022-11-11T00:28:49;15.35;;;7.05;;
52962;SDS011;38827;53.024;6.596;2022-11-11T00:31:21;14.95;;;7.55;;
52962;SDS011;38827;53.024;6.596;2022-11-11T00:33:46;14.55;;;7.45;;
52962;SDS011;38827;53.024;6.596;2022-11-11T00:36:15;17.73;;;7.47;;
52962;SDS011;38827;53.024;6.596;2022-11-11T00:38:54;13.23;;;7.50;;
52962;SDS011;38827;53.024;6.596;2022-11-11T00:44:20;12.45;;;7.10;;
52962;SDS011;38827;53.024;6.596;2022-11-11T00:46:55;15.73;;;8.10;;
52962;SDS011;38827;53.024;6.596;2022-11-11T00:49:57;16.98;;;7.95;;
52962;SDS011;38827;53.024;6.596;2022-11-11T00:59:45;19.58;;;7.88;;
52962;SDS011;38827;53.024;6.596;2022-11-11T01:02:13;14.45;;;7.35;;
52962;SDS011;38827;53.024;6.596;2022-11-11T01:04:48;16.33;;;8.25;;
52962;SDS011;38827;53.024;6.596;2022-11-11T01:07:32;12.20;;;7.68;;
52962;SDS011;38827;53.024;6.596;2022-11-11T01:10:04;12.48;;;7.65;;
52962;SDS011;38827;53.024;6.596;2022-11-11T01:12:30;13.45;;;7.32;;
52962;SDS011;38827;53.024;6.596;2022-11-11T01:15:45;13.95;;;7.30;;
52962;SDS011;38827;53.024;6.596;2022-11-11T01:18:22;17.50;;;8.20;;
52962;SDS011;38827;53.024;6.596;2022-11-11T01:23:39;13.85;;;7.93;;
52962;SDS011;38827;53.024;6.596;2022-11-11T01:26:26;13.80;;;7.68;;
52962;SDS011;38827;53.024;6.596;2022-11-11T01:28:53;14.85;;;7.57;;
52962;SDS011;38827;53.024;6.596;2022-11-11T01:31:37;15.15;;;8.13;;
52962;SDS011;38827;53.024;6.596;2022-11-11T01:34:03;15.80;;;8.13;;
52962;SDS011;38827;53.024;6.596;2022-11-11T01:36:28;14.68;;;7.88;;
52962;SDS011;38827;53.024;6.596;2022-11-11T01:39:03;15.85;;;8.13;;
52962;SDS011;38827;53.024;6.596;2022-11-11T01:41:31;17.83;;;8.00;;
52962;SDS011;38827;53.024;6.596;2022-11-11T01:46:50;14.18;;;8.27;;
52962;SDS011;38827;53.024;6.596;2022-11-11T01:52:22;15.25;;;8.30;;
52962;SDS011;38827;53.024;6.596;2022-11-11T01:55:11;16.20;;;9.02;;
52962;SDS011;38827;53.024;6.596;2022-11-11T01:57:48;18.20;;;8.85;;
52962;SDS011;38827;53.024;6.596;2022-11-11T02:00:22;16.50;;;9.10;;
52962;SDS011;38827;53.024;6.596;2022-11-11T02:02:56;14.23;;;8.80;;
52962;SDS011;38827;53.024;6.596;2022-11-11T02:05:25;16.17;;;9.43;;
52962;SDS011;38827;53.024;6.596;2022-11-11T02:08:26;18.10;;;9.82;;
52962;SDS011;38827;53.024;6.596;2022-11-11T02:11:01;17.98;;;9.90;;
52962;SDS011;38827;53.024;6.596;2022-11-11T02:13:27;18.83;;;10.80;;
52962;SDS011;38827;53.024;6.596;2022-11-11T02:16:12;20.60;;;11.02;;
52962;SDS011;38827;53.024;6.596;2022-11-11T02:18:37;19.92;;;11.75;;
52962;SDS011;38827;53.024;6.596;2022-11-11T02:21:03;20.45;;;11.68;;
52962;SDS011;38827;53.024;6.596;2022-11-11T02:23:41;21.38;;;11.80;;
52962;SDS011;38827;53.024;6.596;2022-11-11T02:26:08;17.25;;;11.45;;
52962;SDS011;38827;53.024;6.596;2022-11-11T02:28:38;19.60;;;11.88;;
52962;SDS011;38827;53.024;6.596;2022-11-11T02:31:05;22.63;;;12.38;;
52962;SDS011;38827;53.024;6.596;2022-11-11T02:33:31;19.27;;;12.48;;
52962;SDS011;38827;53.024;6.596;2022-11-11T02:35:56;20.58;;;13.00;;
52962;SDS011;38827;53.024;6.596;2022-11-11T02:38:24;28.75;;;14.48;;
52962;SDS011;38827;53.024;6.596;2022-11-11T02:43:32;22.88;;;14.65;;
52962;SDS011;38827;53.024;6.596;2022-11-11T02:46:06;23.50;;;14.63;;
52962;SDS011;38827;53.024;6.596;2022-11-11T02:48:32;25.25;;;14.70;;
52962;SDS011;38827;53.024;6.596;2022-11-11T02:51:10;24.95;;;15.60;;
52962;SDS011;38827;53.024;6.596;2022-11-11T02:53:43;24.73;;;15.30;;
52962;SDS011;38827;53.024;6.596;2022-11-11T02:56:09;22.73;;;15.40;;
52962;SDS011;38827;53.024;6.596;2022-11-11T02:58:34;25.55;;;16.17;;
52962;SDS011;38827;53.024;6.596;2022-11-11T03:01:12;24.35;;;15.98;;
52962;SDS011;38827;53.024;6.596;2022-11-11T03:03:46;25.52;;;16.27;;
52962;SDS011;38827;53.024;6.596;2022-11-11T03:06:12;26.90;;;16.65;;
52962;SDS011;38827;53.024;6.596;2022-11-11T03:08:47;30.60;;;16.38;;
52962;SDS011;38827;53.024;6.596;2022-11-11T03:11:25;26.25;;;16.23;;
52962;SDS011;38827;53.024;6.596;2022-11-11T03:14:02;24.05;;;16.23;;
52962;SDS011;38827;53.024;6.596;2022-11-11T03:16:44;26.02;;;16.52;;
52962;SDS011;38827;53.024;6.596;2022-11-11T03:19:31;28.15;;;17.15;;
52962;SDS011;38827;53.024;6.596;2022-11-11T03:21:58;26.35;;;16.98;;
52962;SDS011;38827;53.024;6.596;2022-11-11T03:24:24;23.90;;;17.05;;
52962;SDS011;38827;53.024;6.596;2022-11-11T03:27:36;28.65;;;17.10;;
52962;SDS011;38827;53.024;6.596;2022-11-11T03:30:05;29.65;;;17.15;;
52962;SDS011;38827;53.024;6.596;2022-11-11T03:32:46;25.80;;;17.73;;
52962;SDS011;38827;53.024;6.596;2022-11-11T03:35:12;25.85;;;17.52;;
52962;SDS011;38827;53.024;6.596;2022-11-11T03:37:44;29.60;;;18.63;;
52962;SDS011;38827;53.024;6.596;2022-11-11T03:40:34;28.63;;;18.30;;
52962;SDS011;38827;53.024;6.596;2022-11-11T03:43:00;27.80;;;19.10;;
52962;SDS011;38827;53.024;6.596;2022-11-11T03:45:25;27.33;;;18.83;;
52962;SDS011;38827;53.024;6.596;2022-11-11T03:47:51;29.52;;;19.50;;
52962;SDS011;38827;53.024;6.596;2022-11-11T03:50:32;28.50;;;18.80;;
52962;SDS011;38827;53.024;6.596;2022-11-11T03:53:08;28.60;;;19.20;;
52962;SDS011;38827;53.024;6.596;2022-11-11T03:55:33;27.85;;;19.30;;
52962;SDS011;38827;53.024;6.596;2022-11-11T03:57:59;30.75;;;19.85;;
52962;SDS011;38827;53.024;6.596;2022-11-11T04:00:26;29.27;;;19.63;;
52962;SDS011;38827;53.024;6.596;2022-11-11T04:03:02;27.02;;;18.92;;
52962;SDS011;38827;53.024;6.596;2022-11-11T04:05:52;27.38;;;19.13;;
52962;SDS011;38827;53.024;6.596;2022-11-11T04:08:26;30.95;;;18.98;;
52962;SDS011;38827;53.024;6.596;2022-11-11T04:11:11;28.38;;;19.73;;
52962;SDS011;38827;53.024;6.596;2022-11-11T04:13:41;27.95;;;19.73;;
52962;SDS011;38827;53.024;6.596;2022-11-11T04:16:27;27.52;;;19.23;;
52962;SDS011;38827;53.024;6.596;2022-11-11T04:18:53;32.47;;;20.73;;
52962;SDS011;38827;53.024;6.596;2022-11-11T04:21:37;28.67;;;19.42;;
52962;SDS011;38827;53.024;6.596;2022-11-11T04:24:12;31.50;;;21.05;;
52962;SDS011;38827;53.024;6.596;2022-11-11T04:27:03;30.88;;;20.00;;
52962;SDS011;38827;53.024;6.596;2022-11-11T04:29:30;28.30;;;19.83;;
52962;SDS011;38827;53.024;6.596;2022-11-11T04:31:58;33.88;;;20.30;;
52962;SDS011;38827;53.024;6.596;2022-11-11T04:34:45;33.67;;;21.45;;
52962;SDS011;38827;53.024;6.596;2022-11-11T04:37:30;32.50;;;21.55;;
52962;SDS011;38827;53.024;6.596;2022-11-11T04:39:57;32.25;;;21.02;;
52962;SDS011;38827;53.024;6.596;2022-11-11T04:42:51;30.95;;;22.13;;
52962;SDS011;38827;53.024;6.596;2022-11-11T04:45:30;31.67;;;20.67;;
52962;SDS011;38827;53.024;6.596;2022-11-11T04:48:06;36.20;;;22.30;;
52962;SDS011;38827;53.024;6.596;2022-11-11T04:50:45;30.52;;;21.35;;
52962;SDS011;38827;53.024;6.596;2022-11-11T04:53:23;32.50;;;21.80;;
52962;SDS011;38827;53.024;6.596;2022-11-11T04:55:51;30.27;;;21.38;;
52962;SDS011;38827;53.024;6.596;2022-11-11T04:58:56;31.45;;;22.48;;
52962;SDS011;38827;53.024;6.596;2022-11-11T05:01:58;34.00;;;21.23;;
52962;SDS011;38827;53.024;6.596;2022-11-11T05:04:42;35.03;;;22.30;;
52962;SDS011;38827;53.024;6.596;2022-11-11T05:07:08;32.88;;;21.13;;
52962;SDS011;38827;53.024;6.596;2022-11-11T05:09:52;36.10;;;21.33;;
52962;SDS011;38827;53.024;6.596;2022-11-11T05:12:20;36.15;;;22.48;;
52962;SDS011;38827;53.024;6.596;2022-11-11T05:14:45;31.60;;;23.00;;
52962;SDS011;38827;53.024;6.596;2022-11-11T05:17:29;35.75;;;21.48;;
52962;SDS011;38827;53.024;6.596;2022-11-11T05:20:14;32.28;;;22.75;;
52962;SDS011;38827;53.024;6.596;2022-11-11T05:23:02;35.58;;;22.58;;
52962;SDS011;38827;53.024;6.596;2022-11-11T05:25:28;32.80;;;21.85;;
52962;SDS011;38827;53.024;6.596;2022-11-11T05:27:57;35.70;;;21.80;;
52962;SDS011;38827;53.024;6.596;2022-11-11T05:30:24;30.65;;;21.00;;
52962;SDS011;38827;53.024;6.596;2022-11-11T05:32:53;30.70;;;20.67;;
52962;SDS011;38827;53.024;6.596;2022-11-11T05:35:19;30.13;;;21.40;;
52962;SDS011;38827;53.024;6.596;2022-11-11T05:37:45;32.45;;;21.92;;
52962;SDS011;38827;53.024;6.596;2022-11-11T05:40:30;31.85;;;21.17;;
52962;SDS011;38827;53.024;6.596;2022-11-11T05:42:56;32.20;;;21.25;;
52962;SDS011;38827;53.024;6.596;2022-11-11T05:45:27;32.35;;;21.50;;
52962;SDS011;38827;53.024;6.596;2022-11-11T05:47:53;33.90;;;20.48;;
52962;SDS011;38827;53.024;6.596;2022-11-11T05:50:18;34.15;;;22.10;;
52962;SDS011;38827;53.024;6.596;2022-11-11T05:52:47;34.60;;;22.08;;
52962;SDS011;38827;53.024;6.596;2022-11-11T05:55:14;34.15;;;22.15;;
52962;SDS011;38827;53.024;6.596;2022-11-11T05:57:40;28.40;;;20.33;;
52962;SDS011;38827;53.024;6.596;2022-11-11T06:00:14;34.22;;;21.38;;
52962;SDS011;38827;53.024;6.596;2022-11-11T06:03:02;31.13;;;21.33;;
52962;SDS011;38827;53.024;6.596;2022-11-11T06:05:34;32.25;;;21.13;;
52962;SDS011;38827;53.024;6.596;2022-11-11T06:08:09;32.53;;;21.63;;
52962;SDS011;38827;53.024;6.596;2022-11-11T06:10:53;32.03;;;21.40;;
52962;SDS011;38827;53.024;6.596;2022-11-11T06:13:39;34.42;;;22.17;;
52962;SDS011;38827;53.024;6.596;2022-11-11T06:16:08;29.15;;;20.85;;
52962;SDS011;38827;53.024;6.596;2022-11-11T06:18:34;32.53;;;23.10;;
52962;SDS011;38827;53.024;6.596;2022-11-11T06:21:48;33.83;;;21.55;;
52962;SDS011;38827;53.024;6.596;2022-11-11T06:24:43;33.88;;;22.17;;
52962;SDS011;38827;53.024;6.596;2022-11-11T06:27:48;37.63;;;23.17;;
52962;SDS011;38827;53.024;6.596;2022-11-11T06:30:13;35.17;;;22.48;;
52962;SDS011;38827;53.024;6.596;2022-11-11T06:32:51;36.22;;;21.60;;
52962;SDS011;38827;53.024;6.596;2022-11-11T06:35:19;33.50;;;22.20;;
52962;SDS011;38827;53.024;6.596;2022-11-11T06:37:44;33.35;;;22.02;;
52962;SDS011;38827;53.024;6.596;2022-11-11T06:40:10;33.40;;;21.83;;
52962;SDS011;38827;53.024;6.596;2022-11-11T06:42:46;31.33;;;21.30;;
52962;SDS011;38827;53.024;6.596;2022-11-11T06:46:31;34.65;;;22.15;;
52962;SDS011;38827;53.024;6.596;2022-11-11T06:48:59;35.58;;;22.42;;
52962;SDS011;38827;53.024;6.596;2022-11-11T06:51:40;34.15;;;22.17;;
52962;SDS011;38827;53.024;6.596;2022-11-11T06:54:24;32.17;;;20.67;;
52962;SDS011;38827;53.024;6.596;2022-11-11T06:57:01;33.08;;;21.33;;
52962;SDS011;38827;53.024;6.596;2022-11-11T06:59:37;34.58;;;21.27;;
52962;SDS011;38827;53.024;6.596;2022-11-11T07:02:02;31.98;;;21.40;;
52962;SDS011;38827;53.024;6.596;2022-11-11T07:04:45;34.83;;;20.88;;
52962;SDS011;38827;53.024;6.596;2022-11-11T07:09:36;39.00;;;20.80;;
52962;SDS011;38827;53.024;6.596;2022-11-11T07:12:05;34.38;;;21.27;;
52962;SDS011;38827;53.024;6.596;2022-11-11T07:14:33;32.88;;;21.05;;
52962;SDS011;38827;53.024;6.596;2022-11-11T07:17:05;31.90;;;20.38;;
52962;SDS011;38827;53.024;6.596;2022-11-11T07:19:47;32.03;;;20.00;;
52962;SDS011;38827;53.024;6.596;2022-11-11T07:22:22;28.42;;;19.05;;
52962;SDS011;38827;53.024;6.596;2022-11-11T07:25:00;29.58;;;19.10;;
52962;SDS011;38827;53.024;6.596;2022-11-11T07:27:25;31.02;;;19.75;;
52962;SDS011;38827;53.024;6.596;2022-11-11T07:30:00;28.27;;;19.20;;
52962;SDS011;38827;53.024;6.596;2022-11-11T07:32:26;29.05;;;18.88;;
52962;SDS011;38827;53.024;6.596;2022-11-11T07:34:51;30.23;;;19.75;;
52962;SDS011;38827;53.024;6.596;2022-11-11T07:37:30;32.00;;;19.80;;
52962;SDS011;38827;53.024;6.596;2022-11-11T07:39:56;25.70;;;17.85;;
52962;SDS011;38827;53.024;6.596;2022-11-11T07:42:21;28.23;;;18.42;;
52962;SDS011;38827;53.024;6.596;2022-11-11T07:45:07;30.02;;;20.20;;
52962;SDS011;38827;53.024;6.596;2022-11-11T07:50:15;29.30;;;18.77;;
52962;SDS011;38827;53.024;6.596;2022-11-11T07:52:46;26.90;;;17.90;;
52962;SDS011;38827;53.024;6.596;2022-11-11T07:55:14;30.67;;;18.92;;
52962;SDS011;38827;53.024;6.596;2022-11-11T07:57:40;31.40;;;18.83;;
52962;SDS011;38827;53.024;6.596;2022-11-11T08:00:05;27.23;;;17.17;;
52962;SDS011;38827;53.024;6.596;2022-11-11T08:02:35;30.17;;;17.92;;
52962;SDS011;38827;53.024;6.596;2022-11-11T08:05:00;26.95;;;18.00;;
52962;SDS011;38827;53.024;6.596;2022-11-11T08:07:26;27.50;;;17.90;;
52962;SDS011;38827;53.024;6.596;2022-11-11T08:09:57;31.42;;;18.00;;
52962;SDS011;38827;53.024;6.596;2022-11-11T08:12:23;25.42;;;17.08;;
52962;SDS011;38827;53.024;6.596;2022-11-11T08:15:07;22.05;;;16.65;;
52962;SDS011;38827;53.024;6.596;2022-11-11T08:17:37;23.50;;;17.17;;
52962;SDS011;38827;53.024;6.596;2022-11-11T08:20:04;29.75;;;16.65;;
52962;SDS011;38827;53.024;6.596;2022-11-11T08:22:34;24.92;;;16.88;;
52962;SDS011;38827;53.024;6.596;2022-11-11T08:25:04;24.73;;;16.42;;
52962;SDS011;38827;53.024;6.596;2022-11-11T08:27:32;24.67;;;16.27;;
52962;SDS011;38827;53.024;6.596;2022-11-11T08:29:58;25.20;;;17.07;;
52962;SDS011;38827;53.024;6.596;2022-11-11T08:32:23;28.10;;;17.25;;
52962;SDS011;38827;53.024;6.596;2022-11-11T08:34:50;26.38;;;17.17;;
52962;SDS011;38827;53.024;6.596;2022-11-11T08:37:16;24.60;;;16.42;;
52962;SDS011;38827;53.024;6.596;2022-11-11T08:39:42;24.38;;;15.63;;
52962;SDS011;38827;53.024;6.596;2022-11-11T08:42:07;23.02;;;15.52;;
52962;SDS011;38827;53.024;6.596;2022-11-11T08:44:33;29.45;;;17.15;;
52962;SDS011;38827;53.024;6.596;2022-11-11T08:46:59;23.58;;;16.10;;
52962;SDS011;38827;53.024;6.596;2022-11-11T08:49:24;25.60;;;15.70;;
52962;SDS011;38827;53.024;6.596;2022-11-11T08:51:50;23.02;;;14.27;;
52962;SDS011;38827;53.024;6.596;2022-11-11T08:54:20;22.15;;;15.07;;
52962;SDS011;38827;53.024;6.596;2022-11-11T08:57:06;23.13;;;14.70;;
52962;SDS011;38827;53.024;6.596;2022-11-11T08:59:31;21.08;;;14.63;;
52962;SDS011;38827;53.024;6.596;2022-11-11T09:04:24;24.40;;;14.83;;
52962;SDS011;38827;53.024;6.596;2022-11-11T09:06:53;22.00;;;15.05;;
52962;SDS011;38827;53.024;6.596;2022-11-11T09:09:18;21.98;;;14.43;;
52962;SDS011;38827;53.024;6.596;2022-11-11T09:11:44;22.63;;;14.57;;
52962;SDS011;38827;53.024;6.596;2022-11-11T09:14:10;21.00;;;15.02;;
52962;SDS011;38827;53.024;6.596;2022-11-11T09:16:36;22.23;;;14.93;;
52962;SDS011;38827;53.024;6.596;2022-11-11T09:19:01;20.92;;;13.93;;
52962;SDS011;38827;53.024;6.596;2022-11-11T09:21:27;20.88;;;14.27;;
52962;SDS011;38827;53.024;6.596;2022-11-11T09:23:54;20.40;;;14.90;;
52962;SDS011;38827;53.024;6.596;2022-11-11T09:26:20;22.10;;;14.55;;
52962;SDS011;38827;53.024;6.596;2022-11-11T09:28:47;22.55;;;14.55;;
52962;SDS011;38827;53.024;6.596;2022-11-11T09:31:13;21.73;;;14.45;;
52962;SDS011;38827;53.024;6.596;2022-11-11T09:33:38;20.83;;;13.43;;
52962;SDS011;38827;53.024;6.596;2022-11-11T09:36:04;19.92;;;13.75;;
52962;SDS011;38827;53.024;6.596;2022-11-11T09:38:30;22.40;;;14.43;;
52962;SDS011;38827;53.024;6.596;2022-11-11T09:41:11;20.73;;;14.10;;
52962;SDS011;38827;53.024;6.596;2022-11-11T09:43:47;17.80;;;13.20;;
52962;SDS011;38827;53.024;6.596;2022-11-11T09:51:46;19.23;;;13.98;;
52962;SDS011;38827;53.024;6.596;2022-11-11T09:54:20;21.40;;;13.57;;
52962;SDS011;38827;53.024;6.596;2022-11-11T09:56:59;19.52;;;12.82;;
52962;SDS011;38827;53.024;6.596;2022-11-11T09:59:43;20.00;;;13.48;;
52962;SDS011;38827;53.024;6.596;2022-11-11T10:02:37;18.65;;;12.68;;
52962;SDS011;38827;53.024;6.596;2022-11-11T10:05:11;21.90;;;13.18;;
52962;SDS011;38827;53.024;6.596;2022-11-11T10:07:48;18.55;;;13.13;;
52962;SDS011;38827;53.024;6.596;2022-11-11T10:10:21;18.00;;;12.95;;
52962;SDS011;38827;53.024;6.596;2022-11-11T10:12:53;17.55;;;12.65;;
52962;SDS011;38827;53.024;6.596;2022-11-11T10:15:22;17.73;;;13.20;;
52962;SDS011;38827;53.024;6.596;2022-11-11T10:18:00;21.52;;;12.50;;
52962;SDS011;38827;53.024;6.596;2022-11-11T10:20:40;19.65;;;12.73;;
52962;SDS011;38827;53.024;6.596;2022-11-11T10:25:54;20.48;;;13.80;;
52962;SDS011;38827;53.024;6.596;2022-11-11T10:28:23;18.38;;;12.85;;
52962;SDS011;38827;53.024;6.596;2022-11-11T10:30:54;19.85;;;12.88;;
52962;SDS011;38827;53.024;6.596;2022-11-11T10:35:52;19.27;;;12.52;;
52962;SDS011;38827;53.024;6.596;2022-11-11T10:41:13;16.27;;;12.52;;
52962;SDS011;38827;53.024;6.596;2022-11-11T10:43:45;18.83;;;12.52;;
52962;SDS011;38827;53.024;6.596;2022-11-11T10:51:29;16.95;;;12.05;;
52962;SDS011;38827;53.024;6.596;2022-11-11T10:54:13;19.52;;;12.40;;
52962;SDS011;38827;53.024;6.596;2022-11-11T11:08:21;16.50;;;12.15;;
52962;SDS011;38827;53.024;6.596;2022-11-11T11:13:58;18.05;;;12.55;;
52962;SDS011;38827;53.024;6.596;2022-11-11T11:16:40;15.20;;;11.68;;
52962;SDS011;38827;53.024;6.596;2022-11-11T11:21:47;15.98;;;11.85;;
52962;SDS011;38827;53.024;6.596;2022-11-11T11:24:18;23.00;;;12.07;;
52962;SDS011;38827;53.024;6.596;2022-11-11T11:26:48;16.52;;;12.05;;
52962;SDS011;38827;53.024;6.596;2022-11-11T11:32:13;16.55;;;11.23;;
52962;SDS011;38827;53.024;6.596;2022-11-11T11:37:09;18.67;;;11.30;;
52962;SDS011;38827;53.024;6.596;2022-11-11T11:39:37;15.07;;;10.88;;
52962;SDS011;38827;53.024;6.596;2022-11-11T11:42:04;14.63;;;11.00;;
52962;SDS011;38827;53.024;6.596;2022-11-11T11:44:35;15.63;;;10.82;;
52962;SDS011;38827;53.024;6.596;2022-11-11T11:55:27;19.15;;;12.02;;
52962;SDS011;38827;53.024;6.596;2022-11-11T12:00:45;15.90;;;11.13;;
52962;SDS011;38827;53.024;6.596;2022-11-11T12:06:27;16.20;;;11.70;;
52962;SDS011;38827;53.024;6.596;2022-11-11T12:09:00;16.33;;;11.77;;
52962;SDS011;38827;53.024;6.596;2022-11-11T12:11:45;14.63;;;10.15;;
52962;SDS011;38827;53.024;6.596;2022-11-11T12:14:44;15.38;;;10.25;;
52962;SDS011;38827;53.024;6.596;2022-11-11T12:17:47;13.18;;;10.02;;
52962;SDS011;38827;53.024;6.596;2022-11-11T12:20:24;15.10;;;10.13;;
52962;SDS011;38827;53.024;6.596;2022-11-11T12:25:41;13.88;;;10.70;;
52962;SDS011;38827;53.024;6.596;2022-11-11T12:34:20;13.60;;;10.27;;
52962;SDS011;38827;53.024;6.596;2022-11-11T12:36:59;12.88;;;10.15;;
52962;SDS011;38827;53.024;6.596;2022-11-11T13:00:27;16.20;;;11.10;;
52962;SDS011;38827;53.024;6.596;2022-11-11T13:06:04;13.88;;;10.43;;
52962;SDS011;38827;53.024;6.596;2022-11-11T13:08:43;14.05;;;10.90;;
52962;SDS011;38827;53.024;6.596;2022-11-11T13:16:49;13.00;;;10.15;;
52962;SDS011;38827;53.024;6.596;2022-11-11T13:19:30;14.45;;;11.00;;
52962;SDS011;38827;53.024;6.596;2022-11-11T13:24:50;14.90;;;10.75;;
52962;SDS011;38827;53.024;6.596;2022-11-11T13:32:53;15.10;;;11.75;;
52962;SDS011;38827;53.024;6.596;2022-11-11T13:35:42;15.13;;;11.13;;
52962;SDS011;38827;53.024;6.596;2022-11-11T13:38:11;16.83;;;11.63;;
52962;SDS011;38827;53.024;6.596;2022-11-11T13:40:52;14.50;;;11.73;;
52962;SDS011;38827;53.024;6.596;2022-11-11T13:43:22;16.13;;;11.18;;
52962;SDS011;38827;53.024;6.596;2022-11-11T13:46:00;13.15;;;10.57;;
52962;SDS011;38827;53.024;6.596;2022-11-11T13:48:43;14.57;;;11.13;;
52962;SDS011;38827;53.024;6.596;2022-11-11T13:53:45;17.48;;;11.88;;
52962;SDS011;38827;53.024;6.596;2022-11-11T13:56:20;17.83;;;11.50;;
52962;SDS011;38827;53.024;6.596;2022-11-11T13:58:52;14.93;;;11.38;;
52962;SDS011;38827;53.024;6.596;2022-11-11T14:01:19;15.90;;;11.20;;
52962;SDS011;38827;53.024;6.596;2022-11-11T14:13:49;14.45;;;11.20;;
52962;SDS011;38827;53.024;6.596;2022-11-11T14:19:44;15.93;;;11.68;;
52962;SDS011;38827;53.024;6.596;2022-11-11T14:21:51;19.07;;;12.00;;
52962;SDS011;38827;53.024;6.596;2022-11-11T14:24:28;18.63;;;12.63;;
52962;SDS011;38827;53.024;6.596;2022-11-11T14:29:33;17.20;;;11.75;;
52962;SDS011;38827;53.024;6.596;2022-11-11T14:37:59;15.98;;;12.85;;
52962;SDS011;38827;53.024;6.596;2022-11-11T14:40:31;16.88;;;12.43;;
52962;SDS011;38827;53.024;6.596;2022-11-11T14:47:53;16.48;;;12.70;;
52962;SDS011;38827;53.024;6.596;2022-11-11T14:52:55;16.80;;;12.63;;
52962;SDS011;38827;53.024;6.596;2022-11-11T14:55:28;17.60;;;11.77;;
52962;SDS011;38827;53.024;6.596;2022-11-11T15:00:46;16.38;;;11.95;;
52962;SDS011;38827;53.024;6.596;2022-11-11T15:03:14;16.15;;;12.20;;
52962;SDS011;38827;53.024;6.596;2022-11-11T15:14:09;17.00;;;11.82;;
52962;SDS011;38827;53.024;6.596;2022-11-11T15:16:50;18.35;;;12.27;;
52962;SDS011;38827;53.024;6.596;2022-11-11T15:36:42;17.90;;;12.65;;
52962;SDS011;38827;53.024;6.596;2022-11-11T15:39:26;17.98;;;12.77;;
52962;SDS011;38827;53.024;6.596;2022-11-11T15:42:02;17.70;;;12.98;;
52962;SDS011;38827;53.024;6.596;2022-11-11T15:44:31;18.48;;;13.48;;
52962;SDS011;38827;53.024;6.596;2022-11-11T15:46:59;16.75;;;12.95;;
52962;SDS011;38827;53.024;6.596;2022-11-11T15:54:49;17.50;;;13.07;;
52962;SDS011;38827;53.024;6.596;2022-11-11T15:59:58;18.38;;;13.45;;
52962;SDS011;38827;53.024;6.596;2022-11-11T16:02:27;17.80;;;13.07;;
52962;SDS011;38827;53.024;6.596;2022-11-11T16:08:03;17.63;;;13.32;;
52962;SDS011;38827;53.024;6.596;2022-11-11T16:10:36;19.63;;;14.27;;
52962;SDS011;38827;53.024;6.596;2022-11-11T16:16:02;19.77;;;13.48;;
52962;SDS011;38827;53.024;6.596;2022-11-11T16:18:53;18.13;;;12.90;;
52962;SDS011;38827;53.024;6.596;2022-11-11T16:21:55;19.35;;;13.75;;
52962;SDS011;38827;53.024;6.596;2022-11-11T16:24:34;17.95;;;13.43;;
52962;SDS011;38827;53.024;6.596;2022-11-11T16:27:03;18.90;;;13.90;;
52962;SDS011;38827;53.024;6.596;2022-11-11T16:29:35;20.20;;;14.70;;
52962;SDS011;38827;53.024;6.596;2022-11-11T16:34:50;21.30;;;15.23;;
52962;SDS011;38827;53.024;6.596;2022-11-11T16:37:18;21.08;;;14.88;;
52962;SDS011;38827;53.024;6.596;2022-11-11T16:39:44;19.83;;;15.05;;
52962;SDS011;38827;53.024;6.596;2022-11-11T16:42:26;19.10;;;15.13;;
52962;SDS011;38827;53.024;6.596;2022-11-11T16:45:17;20.92;;;15.20;;
52962;SDS011;38827;53.024;6.596;2022-11-11T16:51:23;20.83;;;15.27;;
52962;SDS011;38827;53.024;6.596;2022-11-11T16:57:28;21.45;;;16.52;;
52962;SDS011;38827;53.024;6.596;2022-11-11T17:06:10;22.88;;;16.77;;
52962;SDS011;38827;53.024;6.596;2022-11-11T17:08:47;23.63;;;16.05;;
52962;SDS011;38827;53.024;6.596;2022-11-11T17:14:03;25.20;;;17.33;;
52962;SDS011;38827;53.024;6.596;2022-11-11T17:19:29;23.98;;;17.83;;
52962;SDS011;38827;53.024;6.596;2022-11-11T17:24:43;23.20;;;16.60;;
52962;SDS011;38827;53.024;6.596;2022-11-11T17:27:09;27.38;;;18.58;;
52962;SDS011;38827;53.024;6.596;2022-11-11T17:29:34;26.10;;;16.67;;
52962;SDS011;38827;53.024;6.596;2022-11-11T17:32:15;25.25;;;17.13;;
52962;SDS011;38827;53.024;6.596;2022-11-11T17:38:19;27.52;;;18.80;;
52962;SDS011;38827;53.024;6.596;2022-11-11T17:40:52;29.55;;;18.27;;
52962;SDS011;38827;53.024;6.596;2022-11-11T17:43:30;27.10;;;17.75;;
52962;SDS011;38827;53.024;6.596;2022-11-11T17:46:08;26.92;;;18.90;;
52962;SDS011;38827;53.024;6.596;2022-11-11T17:52:07;27.45;;;17.77;;
52962;SDS011;38827;53.024;6.596;2022-11-11T17:58:10;27.73;;;18.08;;
52962;SDS011;38827;53.024;6.596;2022-11-11T18:01:09;28.15;;;18.70;;
52962;SDS011;38827;53.024;6.596;2022-11-11T18:03:44;25.38;;;17.27;;
52962;SDS011;38827;53.024;6.596;2022-11-11T18:06:10;25.73;;;17.52;;
52962;SDS011;38827;53.024;6.596;2022-11-11T18:08:36;24.58;;;17.35;;
52962;SDS011;38827;53.024;6.596;2022-11-11T18:19:35;31.67;;;23.88;;
52962;SDS011;38827;53.024;6.596;2022-11-11T18:27:39;33.28;;;21.25;;
52962;SDS011;38827;53.024;6.596;2022-11-11T18:30:25;34.08;;;21.38;;
52962;SDS011;38827;53.024;6.596;2022-11-11T18:32:54;28.98;;;19.50;;
52962;SDS011;38827;53.024;6.596;2022-11-11T18:39:10;29.10;;;18.55;;
52962;SDS011;38827;53.024;6.596;2022-11-11T18:41:35;28.63;;;19.13;;
52962;SDS011;38827;53.024;6.596;2022-11-11T19:10:39;35.38;;;23.77;;
52962;SDS011;38827;53.024;6.596;2022-11-11T19:13:08;36.25;;;23.42;;
52962;SDS011;38827;53.024;6.596;2022-11-11T19:15:34;31.77;;;19.27;;
52962;SDS011;38827;53.024;6.596;2022-11-11T19:17:59;30.52;;;19.45;;
52962;SDS011;38827;53.024;6.596;2022-11-11T19:20:25;30.20;;;19.23;;
52962;SDS011;38827;53.024;6.596;2022-11-11T19:28:59;23.05;;;15.82;;
52962;SDS011;38827;53.024;6.596;2022-11-11T19:31:47;24.17;;;15.73;;
52962;SDS011;38827;53.024;6.596;2022-11-11T19:34:36;22.30;;;14.95;;
52962;SDS011;38827;53.024;6.596;2022-11-11T19:37:01;25.42;;;15.45;;
52962;SDS011;38827;53.024;6.596;2022-11-11T19:39:59;19.42;;;13.43;;
52962;SDS011;38827;53.024;6.596;2022-11-11T19:42:46;22.92;;;14.57;;
52962;SDS011;38827;53.024;6.596;2022-11-11T19:45:13;24.23;;;16.83;;
52962;SDS011;38827;53.024;6.596;2022-11-11T19:47:51;22.08;;;15.13;;
52962;SDS011;38827;53.024;6.596;2022-11-11T19:50:19;19.42;;;12.90;;
52962;SDS011;38827;53.024;6.596;2022-11-11T19:55:41;18.00;;;12.27;;
52962;SDS011;38827;53.024;6.596;2022-11-11T20:01:29;19.33;;;13.68;;
52962;SDS011;38827;53.024;6.596;2022-11-11T20:03:56;19.48;;;12.65;;